createdAt,value
2019-03-20T00:00:19.633Z,0
2019-03-20T00:05:20.493Z,0
2019-03-20T00:10:20.446Z,0
2019-03-20T00:15:19.695Z,0
2019-03-20T00:20:20.224Z,0
2019-03-20T00:25:20.612Z,0.4
2019-03-20T00:30:19.980Z,0.4
2019-03-20T00:35:20.276Z,0.4
2019-03-20T00:40:19.673Z,0.4
2019-03-20T00:45:20.173Z,0.1
2019-03-20T00:50:20.583Z,0.1
2019-03-20T00:55:20.068Z,0
2019-03-20T01:00:20.432Z,0
2019-03-20T01:05:19.801Z,0
2019-03-20T01:10:20.493Z,0
2019-03-20T01:15:20.734Z,0
2019-03-20T01:20:20.080Z,0
2019-03-20T01:25:20.227Z,0
2019-03-20T01:30:20.719Z,0
2019-03-20T01:35:24.063Z,0
2019-03-20T01:40:20.421Z,0
2019-03-20T01:45:19.841Z,0
2019-03-20T01:50:19.803Z,0
2019-03-20T01:55:20.121Z,0
2019-03-20T02:00:20.411Z,0
2019-03-20T02:05:20.292Z,0
2019-03-20T02:10:19.948Z,0
2019-03-20T02:15:20.219Z,0
2019-03-20T02:20:20.110Z,0
2019-03-20T02:25:20.380Z,0
2019-03-20T02:30:19.901Z,0
2019-03-20T02:35:20.631Z,0
2019-03-20T02:40:19.919Z,0
2019-03-20T02:45:20.147Z,0
2019-03-20T02:50:20.523Z,0
2019-03-20T02:55:20.098Z,0
2019-03-20T03:00:20.253Z,0
2019-03-20T03:05:20.584Z,0
2019-03-20T03:10:20.810Z,0
2019-03-20T03:15:20.678Z,0
2019-03-20T03:20:20.053Z,0
2019-03-20T03:25:20.455Z,0
2019-03-20T03:30:20.702Z,0
2019-03-20T03:35:20.404Z,0
2019-03-20T03:40:19.867Z,0
2019-03-20T03:45:20.027Z,0
2019-03-20T03:50:20.339Z,0
2019-03-20T03:55:20.612Z,0.4
2019-03-20T04:00:19.980Z,0.4
2019-03-20T04:05:20.279Z,0
2019-03-20T04:10:20.297Z,0
2019-03-20T04:15:20.519Z,0
2019-03-20T04:20:19.911Z,0
2019-03-20T04:25:20.297Z,0
2019-03-20T04:30:20.674Z,0
2019-03-20T04:35:19.970Z,0
2019-03-20T04:40:20.507Z,0
2019-03-20T04:45:20.738Z,0
2019-03-20T04:50:20.322Z,0
2019-03-20T04:55:20.445Z,0
2019-03-20T05:00:19.949Z,0
2019-03-20T05:05:20.727Z,0
2019-03-20T05:10:20.519Z,0
2019-03-20T05:15:20.888Z,0.4
2019-03-20T05:20:20.331Z,0.4
2019-03-20T05:25:20.798Z,0.3
2019-03-20T05:30:20.776Z,0.3
2019-03-20T05:35:20.893Z,0
2019-03-20T05:40:20.263Z,0
2019-03-20T05:45:20.989Z,0
2019-03-20T05:50:20.559Z,0
2019-03-20T05:55:20.015Z,0
2019-03-20T06:00:20.433Z,0
2019-03-20T06:05:20.198Z,0
2019-03-20T06:10:20.023Z,0
2019-03-20T06:15:20.339Z,0.4
2019-03-20T06:20:20.181Z,0.4
2019-03-20T06:25:21.450Z,0.4
2019-03-20T06:30:20.377Z,0.4
2019-03-20T06:35:20.834Z,0.4
2019-03-20T06:40:20.652Z,0.4
2019-03-20T06:45:20.306Z,0.4
2019-03-20T06:50:20.865Z,0.4
2019-03-20T06:55:20.448Z,0.9
2019-03-20T07:00:20.233Z,0.9
2019-03-20T07:05:20.202Z,1.3
2019-03-20T07:10:20.481Z,1.3
2019-03-20T07:15:20.752Z,1.2
2019-03-20T07:20:20.146Z,1.2
2019-03-20T07:25:20.672Z,0.9
2019-03-20T07:30:21.037Z,0.9
2019-03-20T07:35:20.633Z,1.4
2019-03-20T07:40:20.933Z,1.4
2019-03-20T07:45:20.224Z,1.3
2019-03-20T07:50:21.107Z,1.3
2019-03-20T07:55:20.397Z,1.3
2019-03-20T08:00:20.799Z,1.3
2019-03-20T08:05:28.818Z,1.4
2019-03-20T08:10:20.980Z,1.4
2019-03-20T08:15:20.289Z,1.3
2019-03-20T08:20:20.762Z,1.3
2019-03-20T08:25:20.514Z,1.3
2019-03-20T08:30:20.896Z,1.3
2019-03-20T08:35:20.347Z,1.3
2019-03-20T08:40:20.740Z,1.3
2019-03-20T08:45:20.197Z,1.8
2019-03-20T08:50:20.824Z,1.8
2019-03-20T08:55:20.856Z,1.3
2019-03-20T09:00:21.001Z,1.3
2019-03-20T09:05:21.007Z,1.8
2019-03-20T09:10:20.571Z,1.8
2019-03-20T09:15:21.131Z,1.6
2019-03-20T09:20:20.442Z,1.6
2019-03-20T09:25:20.853Z,2.1
2019-03-20T09:30:20.300Z,2.1
2019-03-20T09:35:20.604Z,1.3
2019-03-20T09:40:23.442Z,1.3
2019-03-20T09:45:21.102Z,2.3
2019-03-20T09:50:20.718Z,2.3
2019-03-20T09:55:20.998Z,2.2
2019-03-20T10:00:20.381Z,2.2
2019-03-20T10:05:20.894Z,2.2
2019-03-20T10:10:20.854Z,2.2
2019-03-20T10:15:21.129Z,1.8
2019-03-20T10:20:20.465Z,1.8
2019-03-20T10:25:20.798Z,1.8
2019-03-20T10:30:21.220Z,1.8
2019-03-20T10:35:20.941Z,2.2
2019-03-20T10:40:20.447Z,2.2
2019-03-20T10:45:20.787Z,1.6
2019-03-20T10:50:21.631Z,1.6
2019-03-20T10:55:21.008Z,2.2
2019-03-20T11:00:20.489Z,2.2
2019-03-20T11:05:21.302Z,2
2019-03-20T11:10:20.902Z,2
2019-03-20T11:15:20.360Z,1.8
2019-03-20T11:20:21.089Z,1.8
2019-03-20T11:25:21.383Z,1.8
2019-03-20T11:30:20.692Z,1.8
2019-03-20T11:35:20.759Z,2.2
2019-03-20T11:40:21.324Z,2.2
2019-03-20T11:45:23.301Z,2.7
2019-03-20T11:50:21.224Z,2.7
2019-03-20T11:55:20.677Z,1.9
2019-03-20T12:00:21.054Z,1.9
2019-03-20T12:05:21.477Z,2.9
2019-03-20T12:10:21.044Z,2.9
2019-03-20T12:15:20.635Z,2.6
2019-03-20T12:20:21.235Z,2.6
2019-03-20T12:25:20.619Z,2.2
2019-03-20T12:30:26.171Z,2.2
2019-03-20T12:35:21.487Z,1.8
2019-03-20T12:40:21.172Z,1.8
2019-03-20T12:45:21.424Z,2.7
2019-03-20T12:50:20.918Z,2.7
2019-03-20T12:55:21.120Z,2.7
2019-03-20T13:00:20.463Z,2.7
2019-03-20T13:05:21.287Z,2.4
2019-03-20T13:10:21.120Z,2.4
2019-03-20T13:15:21.024Z,2.2
2019-03-20T13:20:21.468Z,2.2
2019-03-20T13:25:20.781Z,2.2
2019-03-20T13:30:21.081Z,2.2
2019-03-20T13:35:21.560Z,2.9
2019-03-20T13:40:20.588Z,2.9
2019-03-20T13:45:21.189Z,3
2019-03-20T13:50:21.311Z,3
2019-03-20T13:55:20.723Z,2.6
2019-03-20T14:00:21.198Z,2.6
2019-03-20T14:05:20.771Z,2.2
2019-03-20T14:10:25.432Z,2.2
2019-03-20T14:15:21.493Z,2.7
2019-03-20T14:20:21.460Z,2.7
2019-03-20T14:25:20.674Z,2.3
2019-03-20T14:30:21.597Z,2.3
2019-03-20T14:35:21.184Z,2.4
2019-03-20T14:40:20.748Z,2.4
2019-03-20T14:45:21.250Z,2.7
2019-03-20T14:50:21.646Z,2.7
2019-03-20T14:55:20.611Z,2.2
2019-03-20T15:00:21.034Z,2.2
2019-03-20T15:05:20.659Z,2.8
2019-03-20T15:10:21.430Z,2.8
2019-03-20T15:15:21.230Z,2.6
2019-03-20T15:20:20.751Z,2.6
2019-03-20T15:25:21.068Z,2.4
2019-03-20T15:30:21.537Z,2.4
2019-03-20T15:35:20.815Z,2.3
2019-03-20T15:40:21.592Z,2.3
2019-03-20T15:45:20.719Z,2.6
2019-03-20T15:50:21.315Z,2.6
2019-03-20T15:55:21.662Z,2.7
2019-03-20T16:00:21.039Z,2.7
2019-03-20T16:05:21.405Z,3
2019-03-20T16:10:21.272Z,3
2019-03-20T16:15:21.018Z,2.1
2019-03-20T16:20:21.303Z,2.1
2019-03-20T16:25:20.924Z,2.5
2019-03-20T16:30:21.563Z,2.5
2019-03-20T16:35:20.908Z,2
2019-03-20T16:40:21.626Z,2
2019-03-20T16:45:20.886Z,2.2
2019-03-20T16:50:21.395Z,2.2
2019-03-20T16:55:20.745Z,2.2
2019-03-20T17:00:21.296Z,2.2
2019-03-20T17:05:21.831Z,2.2
2019-03-20T17:10:21.433Z,2.2
2019-03-20T17:15:21.577Z,1.4
2019-03-20T17:20:21.011Z,1.4
2019-03-20T17:25:21.268Z,1.3
2019-03-20T17:30:21.711Z,1.3
2019-03-20T17:35:21.507Z,1.3
2019-03-20T17:40:21.068Z,1.3
2019-03-20T17:45:21.463Z,1.3
2019-03-20T17:50:21.045Z,1.3
2019-03-20T17:55:20.966Z,0.9
2019-03-20T18:00:21.263Z,0.9
2019-03-20T18:05:21.739Z,1.3
2019-03-20T18:10:21.531Z,1.3
2019-03-20T18:15:21.756Z,0.9
2019-03-20T18:20:21.216Z,0.9
2019-03-20T18:25:21.557Z,0.9
2019-03-20T18:30:20.908Z,0.9
2019-03-20T18:35:21.353Z,1.6
2019-03-20T18:40:20.879Z,1.6
2019-03-20T18:45:20.874Z,1.3
2019-03-20T18:50:21.301Z,1.3
2019-03-20T18:55:21.627Z,1.4
2019-03-20T19:00:21.044Z,1.4
2019-03-20T19:05:21.434Z,1.3
2019-03-20T19:10:21.274Z,1.3
2019-03-20T19:15:21.891Z,1.3
2019-03-20T19:20:20.927Z,1.3
2019-03-20T19:25:21.377Z,1.8
2019-03-20T19:30:21.830Z,1.8
2019-03-20T19:35:21.293Z,1.8
2019-03-20T19:40:21.858Z,1.8
2019-03-20T19:45:21.120Z,1.8
2019-03-20T19:50:21.743Z,1.8
2019-03-20T19:55:21.078Z,1.8
2019-03-20T20:00:21.583Z,1.8
2019-03-20T20:05:21.180Z,1.3
2019-03-20T20:10:21.798Z,1.3
2019-03-20T20:15:21.659Z,1.3
2019-03-20T20:20:21.152Z,1.3
2019-03-20T20:25:21.509Z,1.3
2019-03-20T20:30:21.009Z,1.3
2019-03-20T20:35:21.575Z,1
2019-03-20T20:40:21.325Z,1
2019-03-20T20:45:21.595Z,0.9
2019-03-20T20:50:21.989Z,0.9
2019-03-20T20:55:21.320Z,0.9
2019-03-20T21:00:21.744Z,0.9
2019-03-20T21:05:21.246Z,0.9
2019-03-20T21:10:21.951Z,0.9
2019-03-20T21:15:22.380Z,0.9
2019-03-20T21:20:21.872Z,0.9
2019-03-20T21:25:21.170Z,0.9
2019-03-20T21:30:21.562Z,0.9
2019-03-20T21:35:21.841Z,0.9
2019-03-20T21:40:21.505Z,0.9
2019-03-20T21:45:21.784Z,0.9
2019-03-20T21:50:22.372Z,0.9
2019-03-20T21:55:21.631Z,0.8
2019-03-20T22:00:21.979Z,0.8
2019-03-20T22:05:23.301Z,0.9
2019-03-20T22:10:21.913Z,0.9
2019-03-20T22:15:22.844Z,1.3
2019-03-20T22:20:21.205Z,1.3
2019-03-20T22:25:21.645Z,0.9
2019-03-20T22:30:21.977Z,0.9
2019-03-20T22:35:21.433Z,0.4
2019-03-20T22:40:21.208Z,0.4
2019-03-20T22:45:21.610Z,1
2019-03-20T22:50:21.191Z,1
2019-03-20T22:55:21.563Z,0.9
2019-03-20T23:00:22.057Z,0.9
2019-03-20T23:05:21.666Z,0.9
2019-03-20T23:10:21.639Z,0.9
2019-03-20T23:15:21.991Z,1
2019-03-20T23:20:21.659Z,1
2019-03-20T23:25:21.329Z,1.3
2019-03-20T23:30:21.707Z,1.3
2019-03-20T23:35:22.208Z,1.2
2019-03-20T23:40:21.727Z,1.2
2019-03-20T23:45:21.997Z,1.8
2019-03-20T23:50:21.346Z,1.8
2019-03-20T23:55:21.592Z,1.3
